Terminal Aerodrome Forecast
Issued by NWS

Home | Current Version | Previous Version | Text Only | Print | Product List | Glossary On
Versions: 1 2 3 4 5 6 7 8 9 10 11 12 13 14 15 16 17 18 19 20 21 22 23 24 25
000
FTUS44 KBMX 041918 AAA
TAFTOI
TAF AMD
KTOI 041918Z 0419/0518 00000KT P6SM VCSH FEW050 FEW100
      TEMPO 0423/0501 2SM TSRA BKN025CB
     FM050500 19003KT 4SM -SHRA VCTS BKN035CB OVC050
     FM050900 19003KT 3SM -SHRA VCTS OVC015CB
     FM051400 25007KT P6SM VCTS BKN035CB=

USA.gov is the U.S. government's official web portal to all federal, state and local government web resources and services.